Terminal Aerodrome Forecast
Issued by NWS

Home | Current Version | Previous Version | Text Only | Print | Product List | Glossary On
Versions: 1 2 3 4 5 6 7 8 9 10 11 12 13 14 15 16 17 18 19 20 21 22 23 24 25
983
FTUS44 KFWD 270520
TAFDAL
TAF
KDAL 270520Z 2706/2806 18012KT P6SM SCT250
     FM270800 18016KT P6SM BKN014
     FM271700 18016KT P6SM BKN025
     FM271900 18017KT P6SM SCT045=

USA.gov is the U.S. government's official web portal to all federal, state and local government web resources and services.